sensor_id;sensor_type;location;lat;lon;timestamp;P1;durP1;ratioP1;P2;durP2;ratioP2
23044;SDS011;11690;51.716;23.066;2022-08-25T00:01:41;17.42;;;6.50;;
23044;SDS011;11690;51.716;23.066;2022-08-25T00:04:13;20.58;;;6.97;;
23044;SDS011;11690;51.716;23.066;2022-08-25T00:06:43;18.05;;;6.90;;
23044;SDS011;11690;51.716;23.066;2022-08-25T00:09:12;15.02;;;7.45;;
23044;SDS011;11690;51.716;23.066;2022-08-25T00:11:41;17.15;;;7.22;;
23044;SDS011;11690;51.716;23.066;2022-08-25T00:14:10;19.10;;;7.32;;
23044;SDS011;11690;51.716;23.066;2022-08-25T00:16:40;15.18;;;7.13;;
23044;SDS011;11690;51.716;23.066;2022-08-25T00:19:09;18.30;;;7.22;;
23044;SDS011;11690;51.716;23.066;2022-08-25T00:21:38;14.25;;;6.85;;
23044;SDS011;11690;51.716;23.066;2022-08-25T00:24:06;13.75;;;7.30;;
23044;SDS011;11690;51.716;23.066;2022-08-25T00:26:37;15.45;;;7.10;;
23044;SDS011;11690;51.716;23.066;2022-08-25T00:29:05;20.55;;;7.22;;
23044;SDS011;11690;51.716;23.066;2022-08-25T00:31:32;15.65;;;8.05;;
23044;SDS011;11690;51.716;23.066;2022-08-25T00:34:09;23.60;;;7.68;;
23044;SDS011;11690;51.716;23.066;2022-08-25T00:36:38;14.70;;;8.00;;
23044;SDS011;11690;51.716;23.066;2022-08-25T00:39:06;15.63;;;7.90;;
23044;SDS011;11690;51.716;23.066;2022-08-25T00:41:34;22.02;;;7.55;;
23044;SDS011;11690;51.716;23.066;2022-08-25T00:44:03;17.17;;;7.68;;
23044;SDS011;11690;51.716;23.066;2022-08-25T00:46:36;27.95;;;8.32;;
23044;SDS011;11690;51.716;23.066;2022-08-25T00:49:10;19.95;;;7.38;;
23044;SDS011;11690;51.716;23.066;2022-08-25T00:54:55;13.70;;;7.28;;
23044;SDS011;11690;51.716;23.066;2022-08-25T00:57:35;17.52;;;7.50;;
23044;SDS011;11690;51.716;23.066;2022-08-25T01:00:09;18.95;;;8.68;;
23044;SDS011;11690;51.716;23.066;2022-08-25T01:02:48;16.50;;;7.97;;
23044;SDS011;11690;51.716;23.066;2022-08-25T01:05:16;15.23;;;6.95;;
23044;SDS011;11690;51.716;23.066;2022-08-25T01:07:44;23.65;;;7.53;;
23044;SDS011;11690;51.716;23.066;2022-08-25T01:10:12;18.20;;;7.90;;
23044;SDS011;11690;51.716;23.066;2022-08-25T01:12:39;19.95;;;8.27;;
23044;SDS011;11690;51.716;23.066;2022-08-25T01:15:07;16.20;;;7.97;;
23044;SDS011;11690;51.716;23.066;2022-08-25T01:17:52;18.02;;;8.80;;
23044;SDS011;11690;51.716;23.066;2022-08-25T01:20:22;22.48;;;7.93;;
23044;SDS011;11690;51.716;23.066;2022-08-25T01:22:55;14.60;;;7.97;;
23044;SDS011;11690;51.716;23.066;2022-08-25T01:28:15;20.83;;;7.82;;
23044;SDS011;11690;51.716;23.066;2022-08-25T01:30:42;19.40;;;8.27;;
23044;SDS011;11690;51.716;23.066;2022-08-25T01:33:10;21.58;;;8.07;;
23044;SDS011;11690;51.716;23.066;2022-08-25T01:35:38;23.10;;;8.07;;
23044;SDS011;11690;51.716;23.066;2022-08-25T01:38:06;15.02;;;8.00;;
23044;SDS011;11690;51.716;23.066;2022-08-25T01:40:35;21.55;;;8.18;;
23044;SDS011;11690;51.716;23.066;2022-08-25T01:45:33;16.38;;;7.82;;
23044;SDS011;11690;51.716;23.066;2022-08-25T01:48:01;22.30;;;8.45;;
23044;SDS011;11690;51.716;23.066;2022-08-25T01:50:28;16.73;;;7.97;;
23044;SDS011;11690;51.716;23.066;2022-08-25T01:55:25;17.80;;;8.60;;
23044;SDS011;11690;51.716;23.066;2022-08-25T01:57:53;16.73;;;8.50;;
23044;SDS011;11690;51.716;23.066;2022-08-25T02:00:20;18.65;;;8.52;;
23044;SDS011;11690;51.716;23.066;2022-08-25T02:02:48;18.88;;;8.40;;
23044;SDS011;11690;51.716;23.066;2022-08-25T02:05:20;17.38;;;8.07;;
23044;SDS011;11690;51.716;23.066;2022-08-25T02:07:49;14.38;;;7.78;;
23044;SDS011;11690;51.716;23.066;2022-08-25T02:10:16;18.00;;;7.60;;
23044;SDS011;11690;51.716;23.066;2022-08-25T02:12:43;13.75;;;8.32;;
23044;SDS011;11690;51.716;23.066;2022-08-25T02:15:10;19.75;;;8.55;;
23044;SDS011;11690;51.716;23.066;2022-08-25T02:17:37;18.65;;;8.02;;
23044;SDS011;11690;51.716;23.066;2022-08-25T02:20:05;18.23;;;8.43;;
23044;SDS011;11690;51.716;23.066;2022-08-25T02:22:35;16.70;;;8.13;;
23044;SDS011;11690;51.716;23.066;2022-08-25T02:25:02;16.80;;;8.20;;
23044;SDS011;11690;51.716;23.066;2022-08-25T02:27:31;13.18;;;8.32;;
23044;SDS011;11690;51.716;23.066;2022-08-25T02:29:57;18.25;;;8.38;;
23044;SDS011;11690;51.716;23.066;2022-08-25T02:32:24;14.80;;;8.27;;
23044;SDS011;11690;51.716;23.066;2022-08-25T02:34:52;18.15;;;8.38;;
23044;SDS011;11690;51.716;23.066;2022-08-25T02:37:18;19.02;;;7.38;;
23044;SDS011;11690;51.716;23.066;2022-08-25T02:39:46;13.77;;;7.50;;
23044;SDS011;11690;51.716;23.066;2022-08-25T02:42:13;14.55;;;7.03;;
23044;SDS011;11690;51.716;23.066;2022-08-25T02:44:40;30.80;;;8.20;;
23044;SDS011;11690;51.716;23.066;2022-08-25T02:47:07;14.45;;;7.90;;
23044;SDS011;11690;51.716;23.066;2022-08-25T02:49:34;14.77;;;7.82;;
23044;SDS011;11690;51.716;23.066;2022-08-25T02:52:01;11.10;;;6.80;;
23044;SDS011;11690;51.716;23.066;2022-08-25T02:54:29;22.38;;;7.38;;
23044;SDS011;11690;51.716;23.066;2022-08-25T02:56:56;18.50;;;8.05;;
23044;SDS011;11690;51.716;23.066;2022-08-25T02:59:23;16.05;;;8.93;;
23044;SDS011;11690;51.716;23.066;2022-08-25T03:01:50;19.13;;;8.65;;
23044;SDS011;11690;51.716;23.066;2022-08-25T03:04:17;22.98;;;8.30;;
23044;SDS011;11690;51.716;23.066;2022-08-25T03:06:44;14.23;;;8.20;;
23044;SDS011;11690;51.716;23.066;2022-08-25T03:09:11;17.45;;;8.32;;
23044;SDS011;11690;51.716;23.066;2022-08-25T03:11:38;18.50;;;8.45;;
23044;SDS011;11690;51.716;23.066;2022-08-25T03:14:06;16.70;;;7.88;;
23044;SDS011;11690;51.716;23.066;2022-08-25T03:16:35;16.90;;;7.90;;
23044;SDS011;11690;51.716;23.066;2022-08-25T03:19:02;14.88;;;8.45;;
23044;SDS011;11690;51.716;23.066;2022-08-25T03:21:31;16.83;;;7.90;;
23044;SDS011;11690;51.716;23.066;2022-08-25T03:23:58;18.67;;;8.35;;
23044;SDS011;11690;51.716;23.066;2022-08-25T03:26:26;12.73;;;7.93;;
23044;SDS011;11690;51.716;23.066;2022-08-25T03:29:11;15.45;;;8.23;;
23044;SDS011;11690;51.716;23.066;2022-08-25T03:31:39;15.68;;;8.30;;
23044;SDS011;11690;51.716;23.066;2022-08-25T03:34:08;14.38;;;7.97;;
23044;SDS011;11690;51.716;23.066;2022-08-25T03:36:35;14.32;;;8.60;;
23044;SDS011;11690;51.716;23.066;2022-08-25T03:39:03;14.77;;;7.05;;
23044;SDS011;11690;51.716;23.066;2022-08-25T03:41:30;14.45;;;7.68;;
23044;SDS011;11690;51.716;23.066;2022-08-25T03:44:01;16.77;;;7.97;;
23044;SDS011;11690;51.716;23.066;2022-08-25T03:46:33;18.75;;;8.50;;
23044;SDS011;11690;51.716;23.066;2022-08-25T03:49:04;16.35;;;7.68;;
23044;SDS011;11690;51.716;23.066;2022-08-25T03:51:33;16.83;;;8.00;;
23044;SDS011;11690;51.716;23.066;2022-08-25T03:54:03;15.75;;;8.93;;
23044;SDS011;11690;51.716;23.066;2022-08-25T03:56:30;14.77;;;7.95;;
23044;SDS011;11690;51.716;23.066;2022-08-25T03:58:59;13.40;;;8.25;;
23044;SDS011;11690;51.716;23.066;2022-08-25T04:01:26;21.92;;;8.18;;
23044;SDS011;11690;51.716;23.066;2022-08-25T04:03:53;13.00;;;7.88;;
23044;SDS011;11690;51.716;23.066;2022-08-25T04:06:21;14.93;;;7.70;;
23044;SDS011;11690;51.716;23.066;2022-08-25T04:08:48;17.00;;;9.25;;
23044;SDS011;11690;51.716;23.066;2022-08-25T04:11:19;16.38;;;8.02;;
23044;SDS011;11690;51.716;23.066;2022-08-25T04:13:47;19.58;;;8.48;;
23044;SDS011;11690;51.716;23.066;2022-08-25T04:16:16;15.82;;;8.32;;
23044;SDS011;11690;51.716;23.066;2022-08-25T04:18:46;13.75;;;8.35;;
23044;SDS011;11690;51.716;23.066;2022-08-25T04:21:13;22.45;;;8.73;;
23044;SDS011;11690;51.716;23.066;2022-08-25T04:23:41;14.52;;;8.52;;
23044;SDS011;11690;51.716;23.066;2022-08-25T04:26:11;17.85;;;8.57;;
23044;SDS011;11690;51.716;23.066;2022-08-25T04:28:39;19.13;;;9.68;;
23044;SDS011;11690;51.716;23.066;2022-08-25T04:31:10;13.45;;;8.10;;
23044;SDS011;11690;51.716;23.066;2022-08-25T04:33:40;16.73;;;8.32;;
23044;SDS011;11690;51.716;23.066;2022-08-25T04:36:08;13.98;;;8.50;;
23044;SDS011;11690;51.716;23.066;2022-08-25T04:38:38;16.17;;;8.52;;
23044;SDS011;11690;51.716;23.066;2022-08-25T04:41:08;13.75;;;8.50;;
23044;SDS011;11690;51.716;23.066;2022-08-25T04:43:36;15.82;;;8.75;;
23044;SDS011;11690;51.716;23.066;2022-08-25T04:46:04;26.35;;;9.13;;
23044;SDS011;11690;51.716;23.066;2022-08-25T04:48:33;22.70;;;9.30;;
23044;SDS011;11690;51.716;23.066;2022-08-25T04:51:04;18.90;;;9.73;;
23044;SDS011;11690;51.716;23.066;2022-08-25T04:53:32;20.17;;;8.77;;
23044;SDS011;11690;51.716;23.066;2022-08-25T04:55:59;16.42;;;8.52;;
23044;SDS011;11690;51.716;23.066;2022-08-25T04:58:29;18.38;;;9.70;;
23044;SDS011;11690;51.716;23.066;2022-08-25T05:01:06;21.25;;;9.52;;
23044;SDS011;11690;51.716;23.066;2022-08-25T05:03:35;13.52;;;8.80;;
23044;SDS011;11690;51.716;23.066;2022-08-25T05:06:03;16.50;;;9.15;;
23044;SDS011;11690;51.716;23.066;2022-08-25T05:08:31;16.88;;;8.35;;
23044;SDS011;11690;51.716;23.066;2022-08-25T05:11:03;17.65;;;8.25;;
23044;SDS011;11690;51.716;23.066;2022-08-25T05:13:34;18.00;;;8.15;;
23044;SDS011;11690;51.716;23.066;2022-08-25T05:16:01;11.25;;;8.25;;
23044;SDS011;11690;51.716;23.066;2022-08-25T05:18:29;27.27;;;8.60;;
23044;SDS011;11690;51.716;23.066;2022-08-25T05:21:01;16.42;;;7.90;;
23044;SDS011;11690;51.716;23.066;2022-08-25T05:23:33;17.77;;;8.07;;
23044;SDS011;11690;51.716;23.066;2022-08-25T05:26:02;22.02;;;8.77;;
23044;SDS011;11690;51.716;23.066;2022-08-25T05:28:32;16.27;;;8.40;;
23044;SDS011;11690;51.716;23.066;2022-08-25T05:30:59;15.43;;;7.65;;
23044;SDS011;11690;51.716;23.066;2022-08-25T05:33:28;13.07;;;8.35;;
23044;SDS011;11690;51.716;23.066;2022-08-25T05:35:58;20.10;;;7.65;;
23044;SDS011;11690;51.716;23.066;2022-08-25T05:38:25;18.67;;;7.88;;
23044;SDS011;11690;51.716;23.066;2022-08-25T05:40:56;11.20;;;7.72;;
23044;SDS011;11690;51.716;23.066;2022-08-25T05:43:24;13.52;;;6.50;;
23044;SDS011;11690;51.716;23.066;2022-08-25T05:45:55;11.27;;;7.18;;
23044;SDS011;11690;51.716;23.066;2022-08-25T05:48:24;16.73;;;7.05;;
23044;SDS011;11690;51.716;23.066;2022-08-25T05:50:53;10.70;;;6.60;;
23044;SDS011;11690;51.716;23.066;2022-08-25T05:53:24;16.73;;;7.40;;
23044;SDS011;11690;51.716;23.066;2022-08-25T05:55:55;12.48;;;6.95;;
23044;SDS011;11690;51.716;23.066;2022-08-25T05:58:23;17.80;;;6.55;;
23044;SDS011;11690;51.716;23.066;2022-08-25T06:00:50;13.82;;;6.93;;
23044;SDS011;11690;51.716;23.066;2022-08-25T06:03:17;13.10;;;6.32;;
23044;SDS011;11690;51.716;23.066;2022-08-25T06:05:44;18.38;;;6.72;;
23044;SDS011;11690;51.716;23.066;2022-08-25T06:08:11;13.07;;;6.07;;
23044;SDS011;11690;51.716;23.066;2022-08-25T06:10:39;13.13;;;6.07;;
23044;SDS011;11690;51.716;23.066;2022-08-25T06:13:06;10.07;;;5.90;;
23044;SDS011;11690;51.716;23.066;2022-08-25T06:15:34;21.63;;;6.47;;
23044;SDS011;11690;51.716;23.066;2022-08-25T06:18:02;18.20;;;6.38;;
23044;SDS011;11690;51.716;23.066;2022-08-25T06:20:30;13.63;;;6.45;;
23044;SDS011;11690;51.716;23.066;2022-08-25T06:22:57;11.32;;;6.28;;
23044;SDS011;11690;51.716;23.066;2022-08-25T06:25:25;13.88;;;5.82;;
23044;SDS011;11690;51.716;23.066;2022-08-25T06:27:53;15.73;;;6.20;;
23044;SDS011;11690;51.716;23.066;2022-08-25T06:30:22;15.30;;;6.05;;
23044;SDS011;11690;51.716;23.066;2022-08-25T06:32:54;21.27;;;5.60;;
23044;SDS011;11690;51.716;23.066;2022-08-25T06:35:22;13.50;;;5.50;;
23044;SDS011;11690;51.716;23.066;2022-08-25T06:37:49;12.70;;;5.65;;
23044;SDS011;11690;51.716;23.066;2022-08-25T06:40:16;18.02;;;5.78;;
23044;SDS011;11690;51.716;23.066;2022-08-25T06:42:46;18.25;;;5.30;;
23044;SDS011;11690;51.716;23.066;2022-08-25T06:45:14;11.05;;;5.10;;
23044;SDS011;11690;51.716;23.066;2022-08-25T06:47:42;11.77;;;5.13;;
23044;SDS011;11690;51.716;23.066;2022-08-25T06:50:11;14.50;;;5.63;;
23044;SDS011;11690;51.716;23.066;2022-08-25T06:52:38;9.23;;;4.88;;
23044;SDS011;11690;51.716;23.066;2022-08-25T06:55:05;13.02;;;5.50;;
23044;SDS011;11690;51.716;23.066;2022-08-25T06:57:32;15.60;;;4.95;;
23044;SDS011;11690;51.716;23.066;2022-08-25T07:00:04;8.18;;;5.00;;
23044;SDS011;11690;51.716;23.066;2022-08-25T07:02:34;15.82;;;5.43;;
23044;SDS011;11690;51.716;23.066;2022-08-25T07:05:01;11.70;;;4.43;;
23044;SDS011;11690;51.716;23.066;2022-08-25T07:07:30;11.55;;;4.72;;
23044;SDS011;11690;51.716;23.066;2022-08-25T07:10:10;15.55;;;5.22;;
23044;SDS011;11690;51.716;23.066;2022-08-25T07:12:37;14.18;;;4.88;;
23044;SDS011;11690;51.716;23.066;2022-08-25T07:15:04;10.27;;;4.60;;
23044;SDS011;11690;51.716;23.066;2022-08-25T07:17:47;12.70;;;4.50;;
23044;SDS011;11690;51.716;23.066;2022-08-25T07:20:15;8.82;;;4.40;;
23044;SDS011;11690;51.716;23.066;2022-08-25T07:22:45;12.68;;;4.60;;
23044;SDS011;11690;51.716;23.066;2022-08-25T07:25:12;18.98;;;4.78;;
23044;SDS011;11690;51.716;23.066;2022-08-25T07:27:43;10.70;;;4.78;;
23044;SDS011;11690;51.716;23.066;2022-08-25T07:30:10;9.63;;;5.05;;
23044;SDS011;11690;51.716;23.066;2022-08-25T07:32:37;19.10;;;5.13;;
23044;SDS011;11690;51.716;23.066;2022-08-25T07:35:09;14.07;;;4.35;;
23044;SDS011;11690;51.716;23.066;2022-08-25T07:37:51;14.63;;;4.53;;
23044;SDS011;11690;51.716;23.066;2022-08-25T07:40:27;9.05;;;4.43;;
23044;SDS011;11690;51.716;23.066;2022-08-25T07:42:56;15.00;;;4.15;;
23044;SDS011;11690;51.716;23.066;2022-08-25T07:45:26;13.30;;;4.72;;
23044;SDS011;11690;51.716;23.066;2022-08-25T07:48:01;12.10;;;4.80;;
23044;SDS011;11690;51.716;23.066;2022-08-25T07:50:39;11.57;;;4.50;;
23044;SDS011;11690;51.716;23.066;2022-08-25T07:53:10;10.98;;;4.43;;
23044;SDS011;11690;51.716;23.066;2022-08-25T07:55:38;14.70;;;4.15;;
23044;SDS011;11690;51.716;23.066;2022-08-25T07:58:09;9.95;;;4.43;;
23044;SDS011;11690;51.716;23.066;2022-08-25T08:00:38;11.45;;;4.55;;
23044;SDS011;11690;51.716;23.066;2022-08-25T08:03:08;8.82;;;3.92;;
23044;SDS011;11690;51.716;23.066;2022-08-25T08:05:56;17.02;;;4.10;;
23044;SDS011;11690;51.716;23.066;2022-08-25T08:08:23;10.88;;;3.83;;
23044;SDS011;11690;51.716;23.066;2022-08-25T08:10:50;8.75;;;3.92;;
23044;SDS011;11690;51.716;23.066;2022-08-25T08:13:35;8.30;;;3.88;;
23044;SDS011;11690;51.716;23.066;2022-08-25T08:16:08;10.50;;;3.72;;
23044;SDS011;11690;51.716;23.066;2022-08-25T08:18:37;10.57;;;3.95;;
23044;SDS011;11690;51.716;23.066;2022-08-25T08:21:04;14.15;;;4.18;;
23044;SDS011;11690;51.716;23.066;2022-08-25T08:23:32;8.55;;;3.92;;
23044;SDS011;11690;51.716;23.066;2022-08-25T08:25:59;11.40;;;3.63;;
23044;SDS011;11690;51.716;23.066;2022-08-25T08:28:26;9.10;;;3.40;;
23044;SDS011;11690;51.716;23.066;2022-08-25T08:30:53;12.52;;;4.00;;
23044;SDS011;11690;51.716;23.066;2022-08-25T08:33:22;14.93;;;4.22;;
23044;SDS011;11690;51.716;23.066;2022-08-25T08:36:00;13.68;;;3.70;;
23044;SDS011;11690;51.716;23.066;2022-08-25T08:38:31;12.20;;;3.53;;
23044;SDS011;11690;51.716;23.066;2022-08-25T08:41:19;15.25;;;3.13;;
23044;SDS011;11690;51.716;23.066;2022-08-25T08:52:23;5.75;;;2.78;;
23044;SDS011;11690;51.716;23.066;2022-08-25T08:55:04;12.23;;;3.28;;
23044;SDS011;11690;51.716;23.066;2022-08-25T08:57:38;9.80;;;3.22;;
23044;SDS011;11690;51.716;23.066;2022-08-25T09:00:09;6.60;;;2.83;;
23044;SDS011;11690;51.716;23.066;2022-08-25T09:02:39;78.80;;;8.13;;
23044;SDS011;11690;51.716;23.066;2022-08-25T09:05:18;12.88;;;3.20;;
23044;SDS011;11690;51.716;23.066;2022-08-25T09:07:52;15.25;;;3.42;;
23044;SDS011;11690;51.716;23.066;2022-08-25T09:10:22;12.35;;;2.75;;
23044;SDS011;11690;51.716;23.066;2022-08-25T09:13:08;8.32;;;2.28;;
23044;SDS011;11690;51.716;23.066;2022-08-25T09:15:50;10.20;;;2.67;;
23044;SDS011;11690;51.716;23.066;2022-08-25T09:19:16;10.48;;;2.80;;
23044;SDS011;11690;51.716;23.066;2022-08-25T09:22:20;8.73;;;2.22;;
23044;SDS011;11690;51.716;23.066;2022-08-25T09:25:16;12.13;;;2.90;;
23044;SDS011;11690;51.716;23.066;2022-08-25T09:31:24;13.77;;;2.40;;
23044;SDS011;11690;51.716;23.066;2022-08-25T09:33:56;9.65;;;2.83;;
23044;SDS011;11690;51.716;23.066;2022-08-25T09:36:25;9.93;;;2.47;;
23044;SDS011;11690;51.716;23.066;2022-08-25T09:38:52;20.25;;;3.17;;
23044;SDS011;11690;51.716;23.066;2022-08-25T09:49:21;8.02;;;2.63;;
23044;SDS011;11690;51.716;23.066;2022-08-25T09:52:36;11.00;;;2.33;;
23044;SDS011;11690;51.716;23.066;2022-08-25T10:02:36;5.70;;;2.00;;
23044;SDS011;11690;51.716;23.066;2022-08-25T10:05:16;8.85;;;2.70;;
23044;SDS011;11690;51.716;23.066;2022-08-25T10:07:50;10.80;;;2.35;;
23044;SDS011;11690;51.716;23.066;2022-08-25T10:13:21;9.07;;;2.35;;
23044;SDS011;11690;51.716;23.066;2022-08-25T10:19:08;8.32;;;2.05;;
23044;SDS011;11690;51.716;23.066;2022-08-25T10:21:39;7.47;;;1.77;;
23044;SDS011;11690;51.716;23.066;2022-08-25T10:24:08;5.43;;;1.83;;
23044;SDS011;11690;51.716;23.066;2022-08-25T10:35:16;8.65;;;1.98;;
23044;SDS011;11690;51.716;23.066;2022-08-25T10:43:45;12.02;;;2.20;;
23044;SDS011;11690;51.716;23.066;2022-08-25T10:49:06;12.60;;;2.20;;
23044;SDS011;11690;51.716;23.066;2022-08-25T10:56:50;6.22;;;1.80;;
23044;SDS011;11690;51.716;23.066;2022-08-25T11:02:23;7.57;;;2.28;;
23044;SDS011;11690;51.716;23.066;2022-08-25T11:05:09;11.43;;;2.33;;
23044;SDS011;11690;51.716;23.066;2022-08-25T11:07:52;16.02;;;2.40;;
23044;SDS011;11690;51.716;23.066;2022-08-25T11:10:26;11.38;;;2.30;;
23044;SDS011;11690;51.716;23.066;2022-08-25T11:13:22;10.10;;;1.98;;
23044;SDS011;11690;51.716;23.066;2022-08-25T11:16:12;6.90;;;2.10;;
23044;SDS011;11690;51.716;23.066;2022-08-25T11:19:02;5.63;;;2.00;;
23044;SDS011;11690;51.716;23.066;2022-08-25T11:27:03;11.70;;;2.55;;
23044;SDS011;11690;51.716;23.066;2022-08-25T11:29:32;8.32;;;2.55;;
23044;SDS011;11690;51.716;23.066;2022-08-25T11:32:05;6.32;;;2.00;;
23044;SDS011;11690;51.716;23.066;2022-08-25T11:34:32;9.13;;;1.85;;
23044;SDS011;11690;51.716;23.066;2022-08-25T11:37:25;16.50;;;2.15;;
23044;SDS011;11690;51.716;23.066;2022-08-25T11:45:53;11.57;;;2.00;;
23044;SDS011;11690;51.716;23.066;2022-08-25T11:51:29;13.68;;;2.40;;
23044;SDS011;11690;51.716;23.066;2022-08-25T11:56:53;5.95;;;2.20;;
23044;SDS011;11690;51.716;23.066;2022-08-25T12:02:29;13.38;;;2.10;;
23044;SDS011;11690;51.716;23.066;2022-08-25T12:04:56;6.68;;;2.08;;
23044;SDS011;11690;51.716;23.066;2022-08-25T12:07:25;8.13;;;2.30;;
23044;SDS011;11690;51.716;23.066;2022-08-25T12:10:07;9.27;;;2.35;;
23044;SDS011;11690;51.716;23.066;2022-08-25T12:17:39;8.82;;;1.98;;
23044;SDS011;11690;51.716;23.066;2022-08-25T12:20:06;10.15;;;2.03;;
23044;SDS011;11690;51.716;23.066;2022-08-25T12:25:06;13.07;;;2.28;;
23044;SDS011;11690;51.716;23.066;2022-08-25T12:27:39;4.85;;;1.98;;
23044;SDS011;11690;51.716;23.066;2022-08-25T12:30:19;11.18;;;1.90;;
23044;SDS011;11690;51.716;23.066;2022-08-25T12:35:59;5.03;;;1.80;;
23044;SDS011;11690;51.716;23.066;2022-08-25T12:38:44;6.53;;;2.08;;
23044;SDS011;11690;51.716;23.066;2022-08-25T12:41:27;10.18;;;2.25;;
23044;SDS011;11690;51.716;23.066;2022-08-25T12:45:06;8.50;;;2.20;;
23044;SDS011;11690;51.716;23.066;2022-08-25T12:49:49;5.78;;;1.90;;
23044;SDS011;11690;51.716;23.066;2022-08-25T12:52:20;13.93;;;2.10;;
23044;SDS011;11690;51.716;23.066;2022-08-25T12:54:57;11.43;;;2.83;;
23044;SDS011;11690;51.716;23.066;2022-08-25T13:05:39;6.68;;;1.48;;
23044;SDS011;11690;51.716;23.066;2022-08-25T13:10:43;17.75;;;2.22;;
23044;SDS011;11690;51.716;23.066;2022-08-25T13:16:16;10.82;;;1.83;;
23044;SDS011;11690;51.716;23.066;2022-08-25T13:18:55;7.70;;;2.10;;
23044;SDS011;11690;51.716;23.066;2022-08-25T13:21:41;5.90;;;1.55;;
23044;SDS011;11690;51.716;23.066;2022-08-25T13:24:12;8.00;;;1.50;;
23044;SDS011;11690;51.716;23.066;2022-08-25T13:26:53;6.88;;;1.30;;
23044;SDS011;11690;51.716;23.066;2022-08-25T13:29:30;9.48;;;1.65;;
23044;SDS011;11690;51.716;23.066;2022-08-25T13:32:06;18.90;;;2.22;;
23044;SDS011;11690;51.716;23.066;2022-08-25T13:34:40;10.35;;;1.70;;
23044;SDS011;11690;51.716;23.066;2022-08-25T13:37:09;26.08;;;2.55;;
23044;SDS011;11690;51.716;23.066;2022-08-25T13:40:21;20.98;;;2.30;;
23044;SDS011;11690;51.716;23.066;2022-08-25T13:43:13;9.40;;;1.83;;
23044;SDS011;11690;51.716;23.066;2022-08-25T13:45:42;8.70;;;1.60;;
23044;SDS011;11690;51.716;23.066;2022-08-25T13:48:11;272.80;;;20.63;;
23044;SDS011;11690;51.716;23.066;2022-08-25T13:50:49;5.78;;;1.25;;
23044;SDS011;11690;51.716;23.066;2022-08-25T13:53:22;7.47;;;1.30;;
23044;SDS011;11690;51.716;23.066;2022-08-25T13:58:20;24.35;;;2.08;;
23044;SDS011;11690;51.716;23.066;2022-08-25T14:01:15;5.57;;;1.85;;
23044;SDS011;11690;51.716;23.066;2022-08-25T14:15:07;9.32;;;1.50;;
23044;SDS011;11690;51.716;23.066;2022-08-25T14:20:35;7.68;;;1.90;;
23044;SDS011;11690;51.716;23.066;2022-08-25T14:23:06;6.65;;;1.52;;
23044;SDS011;11690;51.716;23.066;2022-08-25T14:25:41;3.88;;;1.20;;
23044;SDS011;11690;51.716;23.066;2022-08-25T14:28:14;8.90;;;1.55;;
23044;SDS011;11690;51.716;23.066;2022-08-25T14:30:49;7.95;;;1.30;;
23044;SDS011;11690;51.716;23.066;2022-08-25T14:33:21;5.65;;;1.10;;
23044;SDS011;11690;51.716;23.066;2022-08-25T14:35:51;3.90;;;1.50;;
23044;SDS011;11690;51.716;23.066;2022-08-25T14:38:21;3.65;;;1.08;;
23044;SDS011;11690;51.716;23.066;2022-08-25T14:40:48;10.18;;;1.50;;
23044;SDS011;11690;51.716;23.066;2022-08-25T14:43:15;9.20;;;1.40;;
23044;SDS011;11690;51.716;23.066;2022-08-25T14:45:44;7.15;;;1.30;;
23044;SDS011;11690;51.716;23.066;2022-08-25T14:48:19;5.07;;;1.40;;
23044;SDS011;11690;51.716;23.066;2022-08-25T14:50:53;8.32;;;1.48;;
23044;SDS011;11690;51.716;23.066;2022-08-25T14:53:22;7.22;;;1.42;;
23044;SDS011;11690;51.716;23.066;2022-08-25T14:55:50;6.70;;;1.33;;
23044;SDS011;11690;51.716;23.066;2022-08-25T14:58:25;6.63;;;1.10;;
23044;SDS011;11690;51.716;23.066;2022-08-25T15:00:59;7.07;;;1.90;;
23044;SDS011;11690;51.716;23.066;2022-08-25T15:03:29;6.55;;;1.40;;
23044;SDS011;11690;51.716;23.066;2022-08-25T15:05:58;11.55;;;1.60;;
23044;SDS011;11690;51.716;23.066;2022-08-25T15:08:27;5.72;;;1.25;;
23044;SDS011;11690;51.716;23.066;2022-08-25T15:11:13;4.53;;;1.33;;
23044;SDS011;11690;51.716;23.066;2022-08-25T15:13:40;8.55;;;1.52;;
23044;SDS011;11690;51.716;23.066;2022-08-25T15:16:17;9.57;;;1.50;;
23044;SDS011;11690;51.716;23.066;2022-08-25T15:19:01;5.72;;;1.50;;
23044;SDS011;11690;51.716;23.066;2022-08-25T15:21:33;3.05;;;1.50;;
23044;SDS011;11690;51.716;23.066;2022-08-25T15:24:02;9.40;;;1.42;;
23044;SDS011;11690;51.716;23.066;2022-08-25T15:26:31;7.47;;;1.45;;
23044;SDS011;11690;51.716;23.066;2022-08-25T15:29:05;6.43;;;1.60;;
23044;SDS011;11690;51.716;23.066;2022-08-25T15:31:34;5.70;;;1.30;;
23044;SDS011;11690;51.716;23.066;2022-08-25T15:34:01;4.57;;;1.20;;
23044;SDS011;11690;51.716;23.066;2022-08-25T15:36:28;8.45;;;1.40;;
23044;SDS011;11690;51.716;23.066;2022-08-25T15:38:55;6.95;;;1.55;;
23044;SDS011;11690;51.716;23.066;2022-08-25T15:41:22;11.10;;;1.50;;
23044;SDS011;11690;51.716;23.066;2022-08-25T15:43:54;9.27;;;1.35;;
23044;SDS011;11690;51.716;23.066;2022-08-25T15:46:26;6.15;;;1.88;;
23044;SDS011;11690;51.716;23.066;2022-08-25T15:48:55;12.18;;;1.70;;
23044;SDS011;11690;51.716;23.066;2022-08-25T15:51:24;9.90;;;1.65;;
23044;SDS011;11690;51.716;23.066;2022-08-25T15:53:51;11.98;;;1.60;;
23044;SDS011;11690;51.716;23.066;2022-08-25T15:56:19;6.15;;;1.50;;
23044;SDS011;11690;51.716;23.066;2022-08-25T15:58:52;3.00;;;1.63;;
23044;SDS011;11690;51.716;23.066;2022-08-25T16:01:22;15.75;;;2.70;;
23044;SDS011;11690;51.716;23.066;2022-08-25T16:03:51;22.13;;;2.92;;
23044;SDS011;11690;51.716;23.066;2022-08-25T16:06:18;39.80;;;4.38;;
23044;SDS011;11690;51.716;23.066;2022-08-25T16:08:45;23.98;;;2.88;;
23044;SDS011;11690;51.716;23.066;2022-08-25T16:11:17;19.67;;;3.47;;
23044;SDS011;11690;51.716;23.066;2022-08-25T16:13:54;23.05;;;3.00;;
23044;SDS011;11690;51.716;23.066;2022-08-25T16:16:22;10.52;;;2.08;;
23044;SDS011;11690;51.716;23.066;2022-08-25T16:18:52;5.78;;;1.80;;
23044;SDS011;11690;51.716;23.066;2022-08-25T16:21:30;7.72;;;1.50;;
23044;SDS011;11690;51.716;23.066;2022-08-25T16:24:02;20.65;;;2.05;;
23044;SDS011;11690;51.716;23.066;2022-08-25T16:26:34;15.65;;;1.45;;
23044;SDS011;11690;51.716;23.066;2022-08-25T16:29:14;5.78;;;1.35;;
23044;SDS011;11690;51.716;23.066;2022-08-25T16:31:42;9.07;;;1.83;;
23044;SDS011;11690;51.716;23.066;2022-08-25T16:34:18;7.15;;;1.70;;
23044;SDS011;11690;51.716;23.066;2022-08-25T16:36:45;4.40;;;1.63;;
23044;SDS011;11690;51.716;23.066;2022-08-25T16:39:17;8.77;;;1.40;;
23044;SDS011;11690;51.716;23.066;2022-08-25T16:41:46;7.85;;;1.67;;
23044;SDS011;11690;51.716;23.066;2022-08-25T16:44:13;11.77;;;1.52;;
23044;SDS011;11690;51.716;23.066;2022-08-25T16:46:40;8.27;;;1.70;;
23044;SDS011;11690;51.716;23.066;2022-08-25T16:49:10;7.30;;;1.50;;
23044;SDS011;11690;51.716;23.066;2022-08-25T16:51:41;10.13;;;1.60;;
23044;SDS011;11690;51.716;23.066;2022-08-25T16:54:09;5.90;;;1.80;;
23044;SDS011;11690;51.716;23.066;2022-08-25T16:56:56;5.07;;;1.80;;
23044;SDS011;11690;51.716;23.066;2022-08-25T16:59:24;8.60;;;1.50;;
23044;SDS011;11690;51.716;23.066;2022-08-25T17:01:51;12.00;;;1.83;;
23044;SDS011;11690;51.716;23.066;2022-08-25T17:04:19;7.13;;;1.98;;
23044;SDS011;11690;51.716;23.066;2022-08-25T17:06:55;10.90;;;1.85;;